createdAt,value
2019-05-02T00:01:12.605Z,98487.73
2019-05-02T00:03:41.042Z,98482.88
2019-05-02T00:06:09.314Z,98479.98
2019-05-02T00:08:36.130Z,98482.02
2019-05-02T00:11:03.460Z,98482.02
2019-05-02T00:13:30.180Z,98479.52
2019-05-02T00:15:57.021Z,98485.34
2019-05-02T00:18:23.844Z,98478.83
2019-05-02T00:20:50.838Z,98476.59
2019-05-02T00:23:23.064Z,98478.73
2019-05-02T00:25:52.628Z,98477.91
2019-05-02T00:28:20.759Z,98477.64
2019-05-02T00:30:47.840Z,98476.02
2019-05-02T00:33:14.676Z,98478.29
2019-05-02T00:35:46.068Z,98470.17
2019-05-02T00:38:10.017Z,98471.95
2019-05-02T00:40:37.021Z,98471.05
2019-05-02T00:43:04.300Z,98474.45
2019-05-02T00:45:33.924Z,98471.75
2019-05-02T00:48:06.054Z,98474.02
2019-05-02T00:50:40.440Z,98472.30
2019-05-02T00:53:07.093Z,98470.98
2019-05-02T00:55:36.734Z,98467.83
2019-05-02T00:58:04.080Z,98462.27
2019-05-02T01:00:33.892Z,98457.66
2019-05-02T01:03:03.754Z,98456.27
2019-05-02T01:05:33.800Z,98463.22
2019-05-02T01:08:01.243Z,98458.72
2019-05-02T01:10:27.732Z,98461.72
2019-05-02T01:12:54.457Z,98454.53
2019-05-02T01:15:21.196Z,98450.94
2019-05-02T01:17:47.913Z,98462.20
2019-05-02T01:20:17.420Z,98453.95
2019-05-02T01:22:47.231Z,98459.19
2019-05-02T01:25:15.676Z,98460.75
2019-05-02T01:28:04.047Z,98458.47
2019-05-02T01:30:42.431Z,98447.34
2019-05-02T01:33:36.767Z,98451.30
2019-05-02T01:36:17.495Z,98455.57
2019-05-02T01:38:46.700Z,98453.00
2019-05-02T01:41:13.415Z,98453.95
2019-05-02T01:43:40.871Z,98451.88
2019-05-02T01:46:07.568Z,98454.74
2019-05-02T01:48:34.822Z,98449.65
2019-05-02T01:51:04.276Z,98448.11
2019-05-02T01:53:34.394Z,98446.45
2019-05-02T01:55:59.386Z,98441.95
2019-05-02T01:58:26.342Z,98433.78
2019-05-02T02:00:53.063Z,98445.20
2019-05-02T02:03:19.819Z,98445.20
2019-05-02T02:05:46.526Z,98440.73
2019-05-02T02:08:13.625Z,98448.88
2019-05-02T02:10:40.330Z,98433.10
2019-05-02T02:13:09.981Z,98435.94
2019-05-02T02:15:39.175Z,98438.14
2019-05-02T02:18:05.899Z,98438.45
2019-05-02T02:20:45.162Z,98436.88
2019-05-02T02:23:28.054Z,98434.69
2019-05-02T02:26:06.953Z,98429.65
2019-05-02T02:28:33.190Z,98432.00
2019-05-02T02:31:04.805Z,98427.27
2019-05-02T02:33:28.656Z,98433.02
2019-05-02T02:35:55.407Z,98433.88
2019-05-02T02:38:26.950Z,98433.91
2019-05-02T02:40:50.747Z,98430.67
2019-05-02T02:43:33.626Z,98433.36
2019-05-02T02:46:05.897Z,98433.09
2019-05-02T02:48:40.630Z,98430.52
2019-05-02T02:51:02.564Z,98427.06
2019-05-02T02:53:29.278Z,98426.04
2019-05-02T02:56:02.070Z,98433.95
2019-05-02T02:58:25.179Z,98420.70
2019-05-02T03:00:51.903Z,98425.44
2019-05-02T03:03:20.803Z,98426.78
2019-05-02T03:05:47.258Z,98424.44
2019-05-02T03:08:14.401Z,98424.96
2019-05-02T03:10:44.994Z,98417.31
2019-05-02T03:13:51.536Z,98417.00
2019-05-02T03:16:09.768Z,98410.13
2019-05-02T03:18:40.719Z,98414.08
2019-05-02T03:21:05.084Z,98417.30
2019-05-02T03:23:31.839Z,98412.25
2019-05-02T03:25:58.690Z,98407.72
2019-05-02T03:28:25.656Z,98408.80
2019-05-02T03:30:52.396Z,98403.74
2019-05-02T03:33:22.215Z,98401.77
2019-05-02T03:35:49.550Z,98404.42
2019-05-02T03:38:16.497Z,98407.63
2019-05-02T03:40:43.210Z,98407.59
2019-05-02T03:43:09.938Z,98409.98
2019-05-02T03:45:39.777Z,98411.59
2019-05-02T03:48:06.436Z,98406.84
2019-05-02T03:50:35.381Z,98397.03
2019-05-02T03:53:02.011Z,98400.75
2019-05-02T03:55:30.686Z,98403.63
2019-05-02T03:57:57.313Z,98397.59
2019-05-02T04:00:24.569Z,98399.64
2019-05-02T04:02:59.566Z,98389.83
2019-05-02T04:05:20.054Z,98393.34
2019-05-02T04:07:47.319Z,98391.47
2019-05-02T04:10:25.636Z,98393.58
2019-05-02T04:12:58.279Z,98395.48
2019-05-02T04:15:21.347Z,98391.00
2019-05-02T04:17:48.060Z,98397.02
2019-05-02T04:20:14.770Z,98393.27
2019-05-02T04:22:48.923Z,98386.88
2019-05-02T04:25:15.574Z,98390.56
2019-05-02T04:27:42.308Z,98395.84
2019-05-02T04:30:11.237Z,98394.59
2019-05-02T04:32:43.009Z,98386.19
2019-05-02T04:35:08.130Z,98393.87
2019-05-02T04:37:40.946Z,98394.94
2019-05-02T04:40:08.036Z,98385.94
2019-05-02T04:42:34.639Z,98394.30
2019-05-02T04:45:20.542Z,98386.88
2019-05-02T04:47:32.831Z,98385.84
2019-05-02T04:49:59.554Z,98386.09
2019-05-02T04:52:28.803Z,98381.59
2019-05-02T04:55:07.998Z,98386.36
2019-05-02T04:57:27.231Z,98383.95
2019-05-02T05:00:05.068Z,98385.02
2019-05-02T05:02:31.187Z,98393.17
2019-05-02T05:04:51.349Z,98393.09
2019-05-02T05:07:18.407Z,98397.65
2019-05-02T05:09:50.106Z,98405.85
2019-05-02T05:12:13.888Z,98434.09
2019-05-02T05:14:43.271Z,98397.45
2019-05-02T05:17:09.278Z,98400.81
2019-05-02T05:19:37.361Z,98404.23
2019-05-02T05:22:06.254Z,98406.08
2019-05-02T05:24:44.413Z,98413.77
2019-05-02T05:27:17.785Z,98412.69
2019-05-02T05:29:41.686Z,98418.77
2019-05-02T05:32:10.152Z,98415.80
2019-05-02T05:34:38.294Z,98418.19
2019-05-02T05:37:09.432Z,98414.98
2019-05-02T05:39:38.119Z,98421.02
2019-05-02T05:42:08.371Z,98424.96
2019-05-02T05:44:37.527Z,98424.14
2019-05-02T05:47:04.298Z,98430.94
2019-05-02T05:49:31.009Z,98433.98
2019-05-02T05:52:02.270Z,98430.58
2019-05-02T05:54:28.286Z,98433.50
2019-05-02T05:56:57.253Z,98434.55
2019-05-02T05:59:28.159Z,98435.58
2019-05-02T06:01:52.932Z,98433.50
2019-05-02T06:04:23.604Z,98435.85
2019-05-02T06:06:48.270Z,98434.03
2019-05-02T06:09:14.999Z,98438.42
2019-05-02T06:11:41.799Z,98439.20
2019-05-02T06:14:09.750Z,98440.86
2019-05-02T06:16:36.442Z,98442.08
2019-05-02T06:19:03.257Z,98447.41
2019-05-02T06:21:30.288Z,98442.50
2019-05-02T06:23:57.060Z,98441.55
2019-05-02T06:26:23.915Z,98444.00
2019-05-02T06:28:50.646Z,98447.21
2019-05-02T06:31:17.405Z,98444.67
2019-05-02T06:33:44.161Z,98446.47
2019-05-02T06:36:10.864Z,98448.44
2019-05-02T06:38:37.608Z,98450.87
2019-05-02T06:41:04.317Z,98440.23
2019-05-02T06:43:31.057Z,98446.29
2019-05-02T06:45:58.098Z,98444.56
2019-05-02T06:48:26.984Z,98443.77
2019-05-02T06:50:53.693Z,98441.03
2019-05-02T06:53:20.520Z,98443.89
2019-05-02T06:55:47.225Z,98441.19
2019-05-02T06:58:13.965Z,98445.22
2019-05-02T07:00:56.460Z,98440.41
2019-05-02T07:03:11.694Z,98444.30
2019-05-02T07:05:38.316Z,98440.36
2019-05-02T07:08:06.697Z,98438.17
2019-05-02T07:10:44.331Z,98429.96
2019-05-02T07:13:10.712Z,98429.45
2019-05-02T07:15:51.080Z,98426.95
2019-05-02T07:18:18.235Z,98421.58
2019-05-02T07:20:46.503Z,98422.64
2019-05-02T07:23:16.032Z,98422.84
2019-05-02T07:25:43.998Z,98429.84
2019-05-02T07:28:10.943Z,98425.12
2019-05-02T07:30:37.653Z,98430.27
2019-05-02T07:33:04.407Z,98424.20
2019-05-02T07:35:31.147Z,98424.94
2019-05-02T07:37:57.887Z,98420.66
2019-05-02T07:40:27.005Z,98418.29
2019-05-02T07:42:53.990Z,98418.55
2019-05-02T07:45:21.137Z,98410.63
2019-05-02T07:47:48.280Z,98406.45
2019-05-02T07:50:17.231Z,98410.59
2019-05-02T07:52:44.046Z,98410.21
2019-05-02T07:55:10.881Z,98410.09
2019-05-02T07:57:37.723Z,98405.17
2019-05-02T08:00:10.107Z,98402.80
2019-05-02T08:02:40.458Z,98409.22
2019-05-02T08:05:08.864Z,98399.87
2019-05-02T08:07:36.543Z,98403.06
2019-05-02T08:10:03.360Z,98397.86
2019-05-02T08:12:30.070Z,98396.96
2019-05-02T08:15:00.279Z,98391.23
2019-05-02T08:17:25.755Z,98393.52
2019-05-02T08:19:52.580Z,98385.97
2019-05-02T08:22:19.323Z,98387.77
2019-05-02T08:24:46.035Z,98390.23
2019-05-02T08:27:38.381Z,98393.61
2019-05-02T08:30:05.895Z,98391.86
2019-05-02T08:32:32.896Z,98383.14
2019-05-02T08:34:59.592Z,98385.70
2019-05-02T08:37:26.732Z,98386.83
2019-05-02T08:39:53.586Z,98376.42
2019-05-02T08:42:27.720Z,98379.42
2019-05-02T08:44:56.410Z,98374.86
2019-05-02T08:47:23.804Z,98376.77
2019-05-02T08:49:54.859Z,98370.71
2019-05-02T08:52:18.634Z,98370.16
2019-05-02T08:54:45.367Z,98368.58
2019-05-02T08:57:12.291Z,98362.78
2019-05-02T08:59:40.886Z,98366.78
2019-05-02T09:02:07.661Z,98358.56
2019-05-02T09:04:34.364Z,98352.27
2019-05-02T09:07:01.252Z,98347.23
2019-05-02T09:09:29.578Z,98349.70
2019-05-02T09:12:08.968Z,98344.91
2019-05-02T09:14:26.347Z,98337.22
2019-05-02T09:16:53.098Z,98336.29
2019-05-02T09:19:26.267Z,98337.03
2019-05-02T09:21:52.545Z,98337.47
2019-05-02T09:24:23.197Z,98338.89
2019-05-02T09:26:48.067Z,98338.43
2019-05-02T09:29:14.919Z,98330.73
2019-05-02T09:31:45.875Z,98336.00
2019-05-02T09:34:11.758Z,98326.03
2019-05-02T09:36:38.572Z,98328.38
2019-05-02T09:39:08.955Z,98322.38
2019-05-02T09:41:36.385Z,98339.29
2019-05-02T09:44:08.926Z,98328.64
2019-05-02T09:46:33.393Z,98319.45
2019-05-02T09:49:04.327Z,98321.66
2019-05-02T09:51:29.041Z,98320.41
2019-05-02T09:53:57.137Z,98306.16
2019-05-02T09:56:24.407Z,98312.02
2019-05-02T09:58:56.755Z,98307.33
2019-05-02T10:01:27.694Z,98306.05
2019-05-02T10:03:54.415Z,98306.18
2019-05-02T10:06:22.961Z,98302.83
2019-05-02T10:08:51.835Z,98305.62
2019-05-02T10:11:24.428Z,98301.30
2019-05-02T10:13:47.310Z,98289.03
2019-05-02T10:16:18.070Z,98299.39
2019-05-02T10:18:43.179Z,98289.00
2019-05-02T10:21:13.553Z,98292.02
2019-05-02T10:23:38.641Z,98286.11
2019-05-02T10:26:05.379Z,98284.02
2019-05-02T10:28:32.120Z,98281.80
2019-05-02T10:31:02.055Z,98289.13
2019-05-02T10:33:33.485Z,98285.87
2019-05-02T10:36:00.181Z,98279.47
2019-05-02T10:38:26.946Z,98276.13
2019-05-02T10:41:01.529Z,98274.02
2019-05-02T10:43:24.814Z,98278.92
2019-05-02T10:45:57.185Z,98273.70
2019-05-02T10:48:28.269Z,98274.70
2019-05-02T10:50:55.041Z,98260.76
2019-05-02T10:53:22.009Z,98258.20
2019-05-02T10:55:49.154Z,98254.75
2019-05-02T10:58:17.546Z,98247.37
2019-05-02T11:00:45.442Z,98239.89
2019-05-02T11:03:43.121Z,98246.63
2019-05-02T11:06:07.736Z,98245.05
2019-05-02T11:08:36.695Z,98234.30
2019-05-02T11:11:06.153Z,98243.27
2019-05-02T11:13:42.681Z,98243.73
2019-05-02T11:16:27.649Z,98236.52
2019-05-02T11:19:14.000Z,98242.18
2019-05-02T11:21:53.465Z,98238.53
2019-05-02T11:24:12.199Z,98239.80
2019-05-02T11:26:38.401Z,98229.98
2019-05-02T11:29:05.579Z,98234.56
2019-05-02T11:31:32.626Z,98222.49
2019-05-02T11:34:01.643Z,98227.17
2019-05-02T11:36:28.162Z,98228.66
2019-05-02T11:39:03.830Z,98221.98
2019-05-02T11:41:23.730Z,98223.16
2019-05-02T11:43:54.130Z,98222.25
2019-05-02T11:46:22.072Z,98223.70
2019-05-02T11:48:56.407Z,98218.42
2019-05-02T11:51:17.656Z,98219.97
2019-05-02T11:53:44.406Z,98221.89
2019-05-02T11:56:13.369Z,98221.67
2019-05-02T11:58:42.365Z,98228.81
2019-05-02T12:01:08.568Z,98223.50
2019-05-02T12:03:43.000Z,98222.98
2019-05-02T12:06:17.134Z,98230.64
2019-05-02T12:08:47.695Z,98215.56
2019-05-02T12:11:13.945Z,98223.58
2019-05-02T12:13:38.350Z,98216.04
2019-05-02T12:16:08.614Z,98212.05
2019-05-02T12:18:35.460Z,98218.33
2019-05-02T12:21:04.952Z,98211.73
2019-05-02T12:23:32.094Z,98222.73
2019-05-02T12:25:59.088Z,98205.29
2019-05-02T12:28:25.811Z,98207.73
2019-05-02T12:30:52.508Z,98205.25
2019-05-02T12:33:22.280Z,98194.45
2019-05-02T12:35:49.249Z,98191.48
2019-05-02T12:38:16.316Z,98199.88
2019-05-02T12:40:43.034Z,98189.53
2019-05-02T12:43:11.847Z,98190.52
2019-05-02T12:45:39.358Z,98181.12
2019-05-02T12:48:06.074Z,98200.69
2019-05-02T12:50:32.796Z,98185.89
2019-05-02T12:52:59.526Z,98176.63
2019-05-02T12:55:28.860Z,98188.09
2019-05-02T12:57:55.558Z,98169.38
2019-05-02T13:00:22.586Z,98178.50
2019-05-02T13:02:56.888Z,98176.91
2019-05-02T13:05:23.730Z,98177.77
2019-05-02T13:07:55.322Z,98162.91
2019-05-02T13:10:32.711Z,98176.70
2019-05-02T13:12:59.594Z,98163.05
2019-05-02T13:15:26.966Z,98161.84
2019-05-02T13:17:53.854Z,98163.61
2019-05-02T13:20:22.946Z,98159.08
2019-05-02T13:23:16.788Z,98157.80
2019-05-02T13:25:45.855Z,98140.04
2019-05-02T13:28:17.057Z,98139.00
2019-05-02T13:30:51.625Z,98143.17
2019-05-02T13:33:27.258Z,98141.69
2019-05-02T13:35:56.766Z,98142.13
2019-05-02T13:38:23.485Z,98131.33
2019-05-02T13:40:51.738Z,98133.95
2019-05-02T13:43:21.846Z,98124.39
2019-05-02T13:45:59.537Z,98124.56
2019-05-02T13:48:26.375Z,98119.59
2019-05-02T13:50:53.080Z,98120.02
2019-05-02T13:53:19.803Z,98109.09
2019-05-02T13:55:53.459Z,98102.20
2019-05-02T13:58:21.626Z,98098.97
2019-05-02T14:00:49.609Z,98095.03
2019-05-02T14:03:16.502Z,98105.98
2019-05-02T14:05:49.170Z,98106.96
2019-05-02T14:08:48.420Z,98095.04
2019-05-02T14:11:33.417Z,98093.30
2019-05-02T14:14:01.842Z,98096.59
2019-05-02T14:16:28.804Z,98111.30
2019-05-02T14:18:55.555Z,98091.12
2019-05-02T14:21:22.484Z,98084.16
2019-05-02T14:23:51.693Z,98088.00
2019-05-02T14:26:29.665Z,98083.30
2019-05-02T14:28:46.946Z,98082.08
2019-05-02T14:31:14.110Z,98085.27
2019-05-02T14:33:43.112Z,98087.47
2019-05-02T14:36:11.604Z,98082.69
2019-05-02T14:38:38.464Z,98076.08
2019-05-02T14:41:12.620Z,98074.84
2019-05-02T14:43:53.999Z,98073.30
2019-05-02T14:46:22.229Z,98070.99
2019-05-02T14:48:49.154Z,98067.68
2019-05-02T14:51:16.713Z,98068.02
2019-05-02T14:53:44.537Z,98064.73
2019-05-02T14:56:32.924Z,98073.58
2019-05-02T14:58:59.546Z,98067.69
2019-05-02T15:01:26.597Z,98063.86
2019-05-02T15:03:53.348Z,98072.34
2019-05-02T15:06:20.070Z,98075.75
2019-05-02T15:08:46.832Z,98064.86
2019-05-02T15:11:13.776Z,98053.84
2019-05-02T15:13:41.750Z,98049.82
2019-05-02T15:16:12.332Z,98055.26
2019-05-02T15:18:37.848Z,98062.81
2019-05-02T15:21:12.289Z,98057.59
2019-05-02T15:23:33.182Z,98063.99
2019-05-02T15:25:59.918Z,98046.92
2019-05-02T15:28:30.522Z,98056.70
2019-05-02T15:31:09.292Z,98047.02
2019-05-02T15:33:42.650Z,98050.39
2019-05-02T15:36:18.316Z,98042.68
2019-05-02T15:38:47.322Z,98050.20
2019-05-02T15:41:15.460Z,98048.23
2019-05-02T15:43:44.157Z,98055.48
2019-05-02T15:46:15.671Z,98052.52
2019-05-02T15:48:39.957Z,98053.92
2019-05-02T15:51:08.990Z,98052.44
2019-05-02T15:54:02.020Z,98063.09
2019-05-02T15:56:20.003Z,98057.09
2019-05-02T15:58:46.752Z,98059.38
2019-05-02T16:01:22.578Z,98059.52
2019-05-02T16:03:52.938Z,98057.98
2019-05-02T16:06:23.937Z,98047.47
2019-05-02T16:08:48.706Z,98050.93
2019-05-02T16:11:17.002Z,98060.31
2019-05-02T16:13:47.113Z,98053.45
2019-05-02T16:16:13.155Z,98046.31
2019-05-02T16:18:40.972Z,98048.20
2019-05-02T16:21:17.800Z,98044.19
2019-05-02T16:24:10.915Z,98050.54
2019-05-02T16:26:30.508Z,98044.42
2019-05-02T16:28:59.828Z,98047.03
2019-05-02T16:31:27.726Z,98047.48
2019-05-02T16:33:57.393Z,98057.20
2019-05-02T16:36:33.819Z,98043.73
2019-05-02T16:38:57.208Z,98055.09
2019-05-02T16:41:24.142Z,98059.17
2019-05-02T16:43:51.884Z,98054.17
2019-05-02T16:46:21.668Z,98053.48
2019-05-02T16:48:48.443Z,98053.72
2019-05-02T16:51:30.277Z,98051.91
2019-05-02T16:53:43.766Z,98049.78
2019-05-02T16:56:11.585Z,98045.56
2019-05-02T16:58:43.380Z,98044.57
2019-05-02T17:01:07.255Z,98053.14
2019-05-02T17:03:35.857Z,98069.42
2019-05-02T17:06:02.702Z,98063.14
2019-05-02T17:08:42.210Z,98075.80
2019-05-02T17:11:16.453Z,98085.07
2019-05-02T17:13:43.140Z,98079.73
2019-05-02T17:16:13.134Z,98085.81
2019-05-02T17:18:38.777Z,98083.42
2019-05-02T17:21:05.823Z,98099.90
2019-05-02T17:23:32.900Z,98113.85
2019-05-02T17:26:01.601Z,98114.49
2019-05-02T17:28:28.657Z,98115.67
2019-05-02T17:31:19.543Z,98129.86
2019-05-02T17:33:46.304Z,98123.44
2019-05-02T17:36:11.685Z,98124.39
2019-05-02T17:38:38.478Z,98127.78
2019-05-02T17:41:07.923Z,98122.33
2019-05-02T17:43:37.472Z,98127.98
2019-05-02T17:46:04.578Z,98120.72
2019-05-02T17:48:32.569Z,98139.57
2019-05-02T17:51:28.324Z,98132.91
2019-05-02T17:53:56.451Z,98134.71
2019-05-02T17:56:25.102Z,98145.75
2019-05-02T17:58:56.866Z,98148.41
2019-05-02T18:01:33.340Z,98141.51
2019-05-02T18:04:01.963Z,98145.66
2019-05-02T18:06:32.948Z,98140.16
2019-05-02T18:08:58.062Z,98144.31
2019-05-02T18:11:24.758Z,98137.16
2019-05-02T18:13:51.837Z,98146.76
2019-05-02T18:16:18.705Z,98146.80
2019-05-02T18:18:46.724Z,98142.20
2019-05-02T18:21:17.230Z,98142.75
2019-05-02T18:23:42.797Z,98146.25
2019-05-02T18:26:11.416Z,98145.67
2019-05-02T18:28:46.986Z,98152.28
2019-05-02T18:31:06.890Z,98144.26
2019-05-02T18:33:35.941Z,98145.47
2019-05-02T18:36:02.434Z,98147.84
2019-05-02T18:38:30.203Z,98149.64
2019-05-02T18:41:00.417Z,98156.92
2019-05-02T18:43:25.559Z,98158.72
2019-05-02T18:45:52.595Z,98157.91
2019-05-02T18:48:19.369Z,98164.56
2019-05-02T18:50:49.825Z,98164.58
2019-05-02T18:53:18.585Z,98165.15
2019-05-02T18:55:43.740Z,98169.20
2019-05-02T18:58:12.589Z,98170.34
2019-05-02T19:00:39.743Z,98179.81
2019-05-02T19:03:07.647Z,98172.81
2019-05-02T19:05:38.477Z,98169.56
2019-05-02T19:08:05.251Z,98173.20
2019-05-02T19:10:32.402Z,98179.48
2019-05-02T19:13:01.045Z,98175.61
2019-05-02T19:15:28.131Z,98176.31
2019-05-02T19:17:54.803Z,98175.25
2019-05-02T19:21:05.927Z,98185.02
2019-05-02T19:23:33.091Z,98185.09
2019-05-02T19:26:03.724Z,98197.67
2019-05-02T19:28:54.435Z,98187.16
2019-05-02T19:31:23.033Z,98189.70
2019-05-02T19:33:49.766Z,98183.83
2019-05-02T19:36:21.724Z,98187.52
2019-05-02T19:38:45.101Z,98195.97
2019-05-02T19:41:12.179Z,98189.50
2019-05-02T19:43:40.335Z,98189.80
2019-05-02T19:46:08.272Z,98194.02
2019-05-02T19:48:37.305Z,98198.20
2019-05-02T19:51:04.016Z,98192.95
2019-05-02T19:53:32.298Z,98205.70
2019-05-02T19:56:01.428Z,98198.15
2019-05-02T19:58:28.145Z,98194.11
2019-05-02T20:00:54.910Z,98192.27
2019-05-02T20:03:25.521Z,98193.43
2019-05-02T20:05:51.874Z,98200.59
2019-05-02T20:08:21.365Z,98197.66
2019-05-02T20:10:49.257Z,98200.91
2019-05-02T20:13:20.325Z,98195.22
2019-05-02T20:15:57.148Z,98196.55
2019-05-02T20:18:24.942Z,98191.79
2019-05-02T20:21:04.351Z,98207.12
2019-05-02T20:23:35.280Z,98198.67
2019-05-02T20:25:59.701Z,98203.88
2019-05-02T20:28:26.458Z,98197.72
2019-05-02T20:30:53.220Z,98200.89
2019-05-02T20:33:22.036Z,98203.80
2019-05-02T20:35:48.709Z,98202.59
2019-05-02T20:38:15.796Z,98199.36
2019-05-02T20:40:42.806Z,98203.98
2019-05-02T20:43:11.993Z,98199.36
2019-05-02T20:45:38.565Z,98194.80
2019-05-02T20:48:05.283Z,98215.06
2019-05-02T20:50:32.018Z,98202.56
2019-05-02T20:52:58.769Z,98216.55
2019-05-02T20:55:25.641Z,98216.03
2019-05-02T20:57:52.768Z,98207.79
2019-05-02T21:00:23.306Z,98204.52
2019-05-02T21:02:49.047Z,98220.88
2019-05-02T21:05:19.014Z,98209.19
2019-05-02T21:07:53.039Z,98211.84
2019-05-02T21:10:38.664Z,98218.27
2019-05-02T21:13:07.946Z,98218.89
2019-05-02T21:15:34.691Z,98219.91
2019-05-02T21:18:02.311Z,98219.38
2019-05-02T21:20:29.308Z,98219.20
2019-05-02T21:22:56.057Z,98224.56
2019-05-02T21:25:23.308Z,98225.82
2019-05-02T21:27:52.237Z,98225.42
2019-05-02T21:30:23.741Z,98227.34
2019-05-02T21:32:52.062Z,98227.09
2019-05-02T21:35:18.847Z,98230.56
2019-05-02T21:37:45.589Z,98235.44
2019-05-02T21:40:12.946Z,98237.72
2019-05-02T21:42:40.093Z,98237.25
2019-05-02T21:45:06.921Z,98240.20
2019-05-02T21:47:33.828Z,98237.60
2019-05-02T21:50:12.432Z,98237.91
2019-05-02T21:52:46.617Z,98243.42
2019-05-02T21:55:33.033Z,98250.11
2019-05-02T21:57:59.768Z,98250.69
2019-05-02T22:00:45.325Z,98243.75
2019-05-02T22:03:12.760Z,98242.73
2019-05-02T22:05:42.771Z,98245.20
2019-05-02T22:08:09.541Z,98248.87
2019-05-02T22:10:38.328Z,98250.39
2019-05-02T22:13:05.097Z,98247.86
2019-05-02T22:15:32.528Z,98248.77
2019-05-02T22:18:01.616Z,98249.07
2019-05-02T22:20:28.433Z,98256.14
2019-05-02T22:22:57.001Z,98250.39
2019-05-02T22:25:26.108Z,98264.45
2019-05-02T22:27:54.093Z,98260.52
2019-05-02T22:30:21.940Z,98264.45
2019-05-02T22:32:48.883Z,98268.87
2019-05-02T22:35:15.634Z,98271.75
2019-05-02T22:37:44.782Z,98260.34
2019-05-02T22:40:13.568Z,98264.69
2019-05-02T22:42:41.751Z,98263.97
2019-05-02T22:45:09.120Z,98277.75
2019-05-02T22:47:35.876Z,98265.64
2019-05-02T22:50:03.142Z,98265.78
2019-05-02T22:52:29.906Z,98271.70
2019-05-02T22:54:58.318Z,98267.58
2019-05-02T22:57:25.448Z,98276.20
2019-05-02T22:59:52.192Z,98286.02
2019-05-02T23:02:19.495Z,98274.12
2019-05-02T23:04:46.220Z,98275.80
2019-05-02T23:07:13.100Z,98279.45
2019-05-02T23:09:43.431Z,98278.73
2019-05-02T23:12:08.822Z,98270.39
2019-05-02T23:14:35.583Z,98277.77
2019-05-02T23:17:02.424Z,98273.98
2019-05-02T23:19:31.580Z,98272.34
2019-05-02T23:21:58.804Z,98274.76
2019-05-02T23:24:39.429Z,98279.12
2019-05-02T23:27:17.821Z,98271.25
2019-05-02T23:29:44.991Z,98275.45
2019-05-02T23:32:11.846Z,98272.84
2019-05-02T23:34:38.923Z,98269.50
2019-05-02T23:37:05.764Z,98278.48
2019-05-02T23:39:33.773Z,98272.31
2019-05-02T23:42:02.341Z,98262.95
2019-05-02T23:44:31.493Z,98262.66
2019-05-02T23:46:58.251Z,98269.13
2019-05-02T23:49:24.963Z,98267.09
2019-05-02T23:51:51.795Z,98266.28
2019-05-02T23:54:18.654Z,98263.47
2019-05-02T23:56:45.393Z,98267.11
2019-05-02T23:59:12.343Z,98268.59
